Time;durP1;ratioP1;P1;durP2;ratioP2;P2;SDS_P1;SDS_P2;PMS_P1;PMS_P2;Temp;Humidity;BMP_temperature;BMP_pressure;BME280_temperature;BME280_humidity;BME280_pressure;Samples;Min_cycle;Max_cycle;Signal;HPM_P1;HPM_P2
2022/08/29 00:02:15;;;;;;;18.90;17.00;;;;;;;18.68;99.96;96642.33;108018;1269;22660;-78
2022/08/29 00:04:47;;;;;;;18.90;16.90;;;;;;;18.64;100.00;96638.80;107811;1270;30701;-78
2022/08/29 00:07:18;;;;;;;16.30;14.60;;;;;;;18.61;100.00;96640.45;107974;1269;22561;-80
2022/08/29 00:09:50;;;;;;;21.20;15.60;;;;;;;18.62;100.00;96645.30;107973;1269;25260;-78
2022/08/29 00:12:21;;;;;;;18.00;16.10;;;;;;;18.60;100.00;96648.36;107895;1269;22554;-78
2022/08/29 00:14:52;;;;;;;17.20;15.30;;;;;;;18.59;100.00;96654.40;107780;1269;37957;-78
2022/08/29 00:17:24;;;;;;;16.20;13.90;;;;;;;18.56;100.00;96660.41;107845;1269;24312;-78
2022/08/29 00:19:55;;;;;;;18.30;16.10;;;;;;;18.50;100.00;96665.10;107826;1269;22527;-78
2022/08/29 00:22:26;;;;;;;14.40;12.30;;;;;;;18.48;100.00;96662.44;107870;1269;22615;-78
2022/08/29 00:25:01;;;;;;;13.70;12.20;;;;;;;18.47;100.00;96658.32;107799;1269;34942;-78
2022/08/29 00:27:33;;;;;;;13.40;11.30;;;;;;;18.44;100.00;96658.35;107969;1269;22741;-80
2022/08/29 00:30:08;;;;;;;12.20;10.30;;;;;;;18.39;100.00;96652.91;107995;1269;25433;-78
2022/08/29 00:32:39;;;;;;;11.40;10.20;;;;;;;18.37;100.00;96655.91;108056;1269;22525;-78
2022/08/29 00:35:13;;;;;;;13.20;11.40;;;;;;;18.37;100.00;96655.50;107957;1269;26705;-78
2022/08/29 00:37:44;;;;;;;14.20;11.70;;;;;;;18.36;100.00;96656.77;107988;1269;24236;-78
2022/08/29 00:40:20;;;;;;;11.10;9.80;;;;;;;18.37;100.00;96657.27;108007;1269;22541;-78
2022/08/29 00:42:52;;;;;;;10.40;9.10;;;;;;;18.37;100.00;96650.36;107961;1269;25150;-78
2022/08/29 00:45:24;;;;;;;9.40;8.00;;;;;;;18.36;100.00;96651.85;107931;1270;24854;-79
2022/08/29 00:58:32;;;;;;;8.90;8.00;;;;;;;18.57;99.66;96652.58;104622;1310;557914;-78
2022/08/29 01:01:04;;;;;;;9.80;7.40;;;;;;;18.54;99.47;96654.20;106178;1279;1336289;-77
2022/08/29 01:03:38;;;;;;;8.70;7.80;;;;;;;18.49;99.53;96660.16;107397;1277;22533;-78
2022/08/29 01:06:12;;;;;;;8.50;7.40;;;;;;;18.46;99.59;96659.69;107376;1279;25264;-78
2022/08/29 01:08:44;;;;;;;7.30;6.30;;;;;;;18.42;99.65;96658.90;107295;1277;29612;-77
2022/08/29 01:14:07;;;;;;;6.90;5.60;;;;;;;18.33;99.89;96662.80;107317;1281;22627;-78
2022/08/29 01:16:39;;;;;;;5.90;5.30;;;;;;;18.29;99.93;96660.52;107379;1277;23255;-78
2022/08/29 01:19:24;;;;;;;5.80;5.20;;;;;;;18.26;99.98;96657.06;107388;1277;27988;-78
2022/08/29 01:22:07;;;;;;;6.10;5.50;;;;;;;18.21;100.00;96660.27;107468;1276;22721;-78
2022/08/29 01:24:44;;;;;;;5.80;5.00;;;;;;;18.16;100.00;96660.32;107463;1276;25379;-78
2022/08/29 01:27:17;;;;;;;4.80;4.30;;;;;;;18.13;100.00;96657.73;107448;1276;25390;-78
2022/08/29 01:29:49;;;;;;;6.80;6.00;;;;;;;18.09;100.00;96661.66;107388;1276;39673;-78
2022/08/29 01:32:21;;;;;;;6.30;5.70;;;;;;;18.03;100.00;96660.52;107501;1276;25380;-78
2022/08/29 01:34:53;;;;;;;7.30;6.50;;;;;;;17.98;100.00;96661.62;107465;1276;23353;-78
2022/08/29 01:37:27;;;;;;;5.10;4.30;;;;;;;17.95;100.00;96658.52;107464;1276;22556;-78
2022/08/29 01:39:59;;;;;;;5.50;4.60;;;;;;;17.91;100.00;96658.11;107469;1276;26431;-78
2022/08/29 01:42:30;;;;;;;5.00;4.30;;;;;;;17.87;100.00;96655.72;107987;1268;22552;-78
2022/08/29 01:45:02;;;;;;;5.60;4.70;;;;;;;17.85;100.00;96657.17;107983;1268;22533;-78
2022/08/29 01:47:34;;;;;;;5.40;4.40;;;;;;;17.83;100.00;96665.98;107887;1269;25414;-78
2022/08/29 01:50:11;;;;;;;6.40;4.90;;;;;;;17.83;100.00;96667.23;107905;1268;35918;-78
2022/08/29 01:52:43;;;;;;;4.00;3.60;;;;;;;17.81;100.00;96668.05;107990;1268;24312;-78
2022/08/29 01:55:17;;;;;;;3.70;2.90;;;;;;;17.79;100.00;96664.79;107956;1268;22765;-78
2022/08/29 01:57:48;;;;;;;3.40;2.80;;;;;;;17.77;100.00;96665.11;107936;1268;25239;-78
2022/08/29 02:00:19;;;;;;;3.30;2.90;;;;;;;17.76;100.00;96669.51;107833;1268;34912;-78
2022/08/29 02:02:51;;;;;;;3.10;2.80;;;;;;;17.75;100.00;96669.92;107949;1269;22534;-78
2022/08/29 02:05:24;;;;;;;4.60;3.20;;;;;;;17.75;100.00;96677.05;107947;1268;22553;-78
2022/08/29 02:07:55;;;;;;;4.00;3.60;;;;;;;17.77;100.00;96675.58;107942;1268;22543;-78
2022/08/29 02:10:29;;;;;;;3.70;2.90;;;;;;;17.79;100.00;96679.36;107886;1268;30648;-78
2022/08/29 02:13:00;;;;;;;3.10;2.80;;;;;;;17.81;100.00;96679.16;107786;1269;22540;-78
2022/08/29 02:15:31;;;;;;;3.10;2.50;;;;;;;17.78;100.00;96676.84;107968;1268;26489;-78
2022/08/29 02:18:02;;;;;;;2.80;2.60;;;;;;;17.78;100.00;96678.92;107960;1268;23016;-78
2022/08/29 02:20:34;;;;;;;3.40;2.90;;;;;;;17.84;100.00;96677.21;107881;1268;39085;-78
2022/08/29 02:23:05;;;;;;;2.70;2.50;;;;;;;17.87;100.00;96677.70;107971;1268;22610;-78
2022/08/29 02:25:45;;;;;;;2.30;2.10;;;;;;;17.90;100.00;96674.48;107813;1269;25243;-78
2022/08/29 02:28:18;;;;;;;3.30;2.70;;;;;;;17.94;100.00;96676.33;107876;1268;28063;-78
2022/08/29 02:30:51;;;;;;;1.80;1.50;;;;;;;17.94;100.00;96675.56;107905;1269;22529;-78
2022/08/29 02:33:23;;;;;;;2.50;1.90;;;;;;;17.89;100.00;96676.30;107901;1269;23849;-78
2022/08/29 02:35:55;;;;;;;1.50;1.40;;;;;;;17.86;100.00;96677.83;107940;1268;22633;-78
2022/08/29 02:38:28;;;;;;;1.60;1.20;;;;;;;17.81;100.00;96679.86;107844;1268;30779;-78
2022/08/29 02:41:00;;;;;;;4.90;4.40;;;;;;;17.75;100.00;96679.48;107891;1269;22532;-78
2022/08/29 02:43:31;;;;;;;6.10;5.40;;;;;;;17.69;100.00;96678.22;107978;1268;22518;-78
2022/08/29 02:46:03;;;;;;;9.50;8.50;;;;;;;17.64;100.00;96680.16;107944;1268;22640;-78
2022/08/29 02:48:35;;;;;;;11.70;10.30;;;;;;;17.60;100.00;96679.98;107875;1268;33842;-78
2022/08/29 02:51:07;;;;;;;12.20;10.90;;;;;;;17.55;100.00;96675.89;107972;1268;22679;-78
2022/08/29 02:53:38;;;;;;;11.80;10.20;;;;;;;17.50;100.00;96674.30;107933;1269;24246;-78
2022/08/29 02:56:10;;;;;;;13.20;11.90;;;;;;;17.46;100.00;96678.98;107974;1267;22621;-78
2022/08/29 02:58:41;;;;;;;14.30;12.40;;;;;;;17.44;100.00;96679.23;107864;1268;32779;-78
2022/08/29 03:01:16;;;;;;;18.70;13.90;;;;;;;17.39;100.00;96677.14;107917;1270;22525;-78
2022/08/29 03:03:47;;;;;;;19.60;15.70;;;;;;;17.35;100.00;96676.44;107915;1269;25235;-78
2022/08/29 03:06:19;;;;;;;18.70;16.40;;;;;;;17.32;100.00;96676.54;107884;1269;23117;-79
2022/08/29 03:08:50;;;;;;;17.80;15.60;;;;;;;17.29;100.00;96674.96;107807;1268;30020;-78
2022/08/29 03:11:22;;;;;;;17.90;15.20;;;;;;;17.28;100.00;96680.10;107959;1267;22564;-78
2022/08/29 03:13:54;;;;;;;18.00;16.10;;;;;;;17.28;100.00;96681.41;108029;1268;25465;-77
2022/08/29 03:16:25;;;;;;;18.50;16.60;;;;;;;17.27;100.00;96679.79;108016;1268;22552;-78
2022/08/29 03:18:56;;;;;;;20.40;18.10;;;;;;;17.26;100.00;96688.02;107918;1267;31073;-78
2022/08/29 03:21:28;;;;;;;20.00;17.80;;;;;;;17.27;100.00;96685.65;107970;1268;22526;-77
2022/08/29 03:24:00;;;;;;;19.90;17.40;;;;;;;17.27;100.00;96682.96;107994;1268;25318;-78
2022/08/29 03:26:31;;;;;;;20.60;18.40;;;;;;;17.26;100.00;96683.64;107956;1267;22540;-78
2022/08/29 03:29:02;;;;;;;18.70;16.60;;;;;;;17.26;100.00;96687.23;107881;1268;30811;-77
2022/08/29 03:31:34;;;;;;;20.60;18.40;;;;;;;17.26;100.00;96693.51;107901;1269;22544;-77
2022/08/29 03:34:05;;;;;;;19.30;17.20;;;;;;;17.27;100.00;96696.30;107930;1269;25286;-78
2022/08/29 03:36:36;;;;;;;19.90;17.80;;;;;;;17.27;100.00;96698.52;107871;1268;22534;-78
2022/08/29 03:39:08;;;;;;;20.90;17.90;;;;;;;17.27;100.00;96707.31;107783;1268;34126;-78
2022/08/29 03:41:39;;;;;;;20.50;18.30;;;;;;;17.28;100.00;96709.50;107976;1268;23249;-78
2022/08/29 03:44:13;;;;;;;21.60;18.70;;;;;;;17.27;100.00;96714.84;107948;1268;25356;-78
2022/08/29 03:46:47;;;;;;;22.30;19.00;;;;;;;17.26;100.00;96720.84;107971;1270;22518;-78
2022/08/29 03:49:18;;;;;;;22.70;20.00;;;;;;;17.26;100.00;96724.52;107858;1270;36044;-78
2022/08/29 03:51:49;;;;;;;23.80;21.20;;;;;;;17.27;100.00;96731.04;107933;1270;22565;-78
2022/08/29 03:54:21;;;;;;;25.80;20.70;;;;;;;17.27;100.00;96729.40;107975;1270;25370;-78
2022/08/29 03:56:53;;;;;;;22.10;19.80;;;;;;;17.29;100.00;96728.39;108020;1268;25247;-77
2022/08/29 03:59:24;;;;;;;22.80;20.20;;;;;;;17.32;100.00;96729.98;107808;1270;27203;-77
2022/08/29 04:01:56;;;;;;;21.50;19.20;;;;;;;17.32;100.00;96728.77;107906;1269;22531;-78
2022/08/29 04:07:16;;;;;;;19.40;17.40;;;;;;;17.31;100.00;96729.30;107895;1269;22642;-78
2022/08/29 04:09:50;;;;;;;19.70;16.50;;;;;;;17.28;100.00;96734.70;107786;1270;26052;-78
2022/08/29 04:12:21;;;;;;;18.90;15.70;;;;;;;17.24;100.00;96739.06;107992;1269;22679;-78
2022/08/29 04:14:52;;;;;;;16.70;15.00;;;;;;;17.20;100.00;96739.73;107976;1270;22544;-78
2022/08/29 04:17:23;;;;;;;16.80;15.00;;;;;;;17.18;100.00;96742.05;107928;1270;23860;-78
2022/08/29 04:19:55;;;;;;;15.30;13.20;;;;;;;17.15;100.00;96744.04;107871;1268;35098;-78
2022/08/29 04:22:26;;;;;;;16.70;14.50;;;;;;;17.15;100.00;96743.88;107972;1268;22574;-78
2022/08/29 04:24:59;;;;;;;19.40;15.80;;;;;;;17.13;100.00;96742.57;107931;1270;22731;-78
2022/08/29 04:27:30;;;;;;;18.80;15.90;;;;;;;17.11;100.00;96748.30;107966;1268;22537;-78
2022/08/29 04:30:01;;;;;;;16.90;14.00;;;;;;;17.13;100.00;96750.77;107821;1270;32580;-78
2022/08/29 04:32:32;;;;;;;15.10;13.50;;;;;;;17.13;100.00;96755.17;107906;1269;25603;-78
2022/08/29 04:35:04;;;;;;;15.00;12.90;;;;;;;17.11;100.00;96756.41;107877;1269;22541;-78
2022/08/29 04:37:38;;;;;;;13.90;12.10;;;;;;;17.08;100.00;96761.70;107735;1269;23461;-78
2022/08/29 04:40:14;;;;;;;14.70;11.60;;;;;;;17.06;100.00;96768.23;107782;1268;29472;-78
2022/08/29 04:42:46;;;;;;;13.50;11.40;;;;;;;17.05;100.00;96770.77;107982;1268;22533;-78
2022/08/29 04:45:21;;;;;;;14.80;11.80;;;;;;;17.02;100.00;96772.15;107972;1268;25386;-78
2022/08/29 04:47:52;;;;;;;14.70;12.40;;;;;;;17.02;100.00;96771.46;107943;1268;22528;-78
2022/08/29 04:50:27;;;;;;;14.70;13.00;;;;;;;17.02;100.00;96773.73;107865;1268;24671;-77
2022/08/29 04:52:58;;;;;;;15.10;13.40;;;;;;;17.01;100.00;96777.17;107901;1268;25255;-78
2022/08/29 04:55:30;;;;;;;13.40;11.20;;;;;;;17.00;100.00;96781.08;107865;1269;24234;-78
2022/08/29 04:58:01;;;;;;;13.20;11.80;;;;;;;16.98;100.00;96782.09;107954;1268;27972;-79
2022/08/29 05:00:32;;;;;;;14.00;11.80;;;;;;;16.97;100.00;96784.55;107929;1269;26711;-79
2022/08/29 05:03:06;;;;;;;13.50;12.10;;;;;;;16.97;100.00;96788.30;107936;1270;22651;-77
2022/08/29 05:05:37;;;;;;;15.30;13.70;;;;;;;17.00;100.00;96790.44;107920;1270;22511;-77
2022/08/29 05:08:09;;;;;;;17.10;12.60;;;;;;;17.10;100.00;96795.64;107894;1268;25307;-77
2022/08/29 05:10:46;;;;;;;13.80;12.40;;;;;;;17.15;100.00;96795.98;107901;1269;22519;-77
2022/08/29 05:13:17;;;;;;;14.10;11.20;;;;;;;17.14;100.00;96799.58;107913;1270;22543;-77
2022/08/29 05:15:49;;;;;;;13.60;12.00;;;;;;;17.15;100.00;96800.92;107894;1270;22542;-77
2022/08/29 05:18:21;;;;;;;13.80;12.30;;;;;;;17.15;100.00;96804.64;107909;1267;34133;-77
2022/08/29 05:20:53;;;;;;;14.30;11.70;;;;;;;17.14;100.00;96805.24;107879;1271;22537;-77
2022/08/29 05:23:24;;;;;;;13.30;12.00;;;;;;;17.14;100.00;96810.04;107950;1269;22550;-78
2022/08/29 05:26:00;;;;;;;14.90;12.10;;;;;;;17.16;100.00;96810.84;107982;1268;22547;-78
2022/08/29 05:28:35;;;;;;;14.80;12.50;;;;;;;17.17;100.00;96809.67;107759;1268;48831;-78
2022/08/29 05:31:09;;;;;;;13.80;11.50;;;;;;;17.16;100.00;96809.91;107869;1269;22545;-77
2022/08/29 05:33:41;;;;;;;13.20;11.80;;;;;;;17.16;100.00;96808.15;107856;1268;22613;-78
2022/08/29 05:36:13;;;;;;;13.10;11.70;;;;;;;17.16;100.00;96810.58;107876;1269;22559;-77
2022/08/29 05:38:45;;;;;;;14.10;12.60;;;;;;;17.17;100.00;96815.47;107764;1269;37040;-79
2022/08/29 05:41:18;;;;;;;14.40;12.50;;;;;;;17.16;100.00;96817.79;107907;1268;22527;-78
2022/08/29 05:43:50;;;;;;;16.00;14.10;;;;;;;17.16;100.00;96815.22;107930;1268;22649;-79
2022/08/29 05:46:21;;;;;;;15.90;13.60;;;;;;;17.14;100.00;96816.02;107885;1268;22539;-79
2022/08/29 05:48:53;;;;;;;15.90;12.40;;;;;;;17.11;100.00;96814.11;107787;1268;37721;-79
2022/08/29 05:51:24;;;;;;;16.70;13.30;;;;;;;17.06;100.00;96813.52;107888;1268;22588;-79
2022/08/29 05:53:55;;;;;;;15.70;14.00;;;;;;;17.03;100.00;96813.54;107876;1269;22528;-79
2022/08/29 05:56:29;;;;;;;16.60;14.70;;;;;;;17.01;100.00;96814.41;107887;1268;26414;-79
2022/08/29 05:59:00;;;;;;;19.10;16.50;;;;;;;16.99;100.00;96818.55;107825;1268;33269;-79
2022/08/29 06:01:34;;;;;;;21.80;16.20;;;;;;;16.99;100.00;96813.56;107952;1268;23848;-79
2022/08/29 06:04:06;;;;;;;20.50;15.80;;;;;;;16.97;100.00;96816.72;107981;1270;22579;-79
2022/08/29 06:06:37;;;;;;;19.10;16.00;;;;;;;16.97;100.00;96817.76;107933;1267;25538;-80
2022/08/29 06:09:10;;;;;;;19.30;16.10;;;;;;;16.95;100.00;96817.54;107957;1270;33081;-78
2022/08/29 06:11:46;;;;;;;22.60;15.20;;;;;;;16.91;100.00;96823.17;108073;1270;22541;-79
2022/08/29 06:14:19;;;;;;;18.10;15.20;;;;;;;16.86;100.00;96825.46;108001;1267;22531;-81
2022/08/29 06:16:50;;;;;;;18.80;15.60;;;;;;;16.80;100.00;96828.64;107939;1268;22540;-80
2022/08/29 06:19:21;;;;;;;20.60;15.70;;;;;;;16.77;100.00;96833.55;107920;1268;34254;-82
2022/08/29 06:21:54;;;;;;;19.90;17.00;;;;;;;16.79;100.00;96837.39;107941;1267;22581;-79
2022/08/29 06:24:25;;;;;;;19.90;16.30;;;;;;;16.82;100.00;96836.23;107947;1268;22604;-80
2022/08/29 06:26:56;;;;;;;20.50;15.90;;;;;;;16.84;100.00;96837.99;107926;1268;25242;-81
2022/08/29 06:29:30;;;;;;;16.20;13.70;;;;;;;16.83;100.00;96838.02;107871;1267;27970;-79
2022/08/29 06:32:01;;;;;;;14.10;12.00;;;;;;;16.81;100.00;96842.98;107947;1268;22553;-79
2022/08/29 06:34:33;;;;;;;15.10;10.30;;;;;;;16.80;100.00;96840.10;107961;1268;22534;-79
2022/08/29 06:37:04;;;;;;;13.00;10.60;;;;;;;16.79;100.00;96841.80;107946;1267;22538;-79
2022/08/29 06:39:36;;;;;;;11.00;8.80;;;;;;;16.80;100.00;96842.63;107854;1268;27177;-80
2022/08/29 06:42:07;;;;;;;12.50;9.50;;;;;;;16.81;100.00;96851.17;107929;1268;22642;-79
2022/08/29 06:44:39;;;;;;;11.50;9.50;;;;;;;16.80;100.00;96851.45;107896;1268;25285;-79
2022/08/29 06:47:13;;;;;;;9.80;8.60;;;;;;;16.79;100.00;96861.12;107928;1268;25450;-79
2022/08/29 06:49:45;;;;;;;14.50;11.30;;;;;;;16.78;100.00;96862.50;107850;1268;25236;-80
2022/08/29 06:52:18;;;;;;;16.90;11.90;;;;;;;16.75;100.00;96865.41;107890;1270;22641;-80
2022/08/29 06:54:49;;;;;;;15.10;12.00;;;;;;;16.69;100.00;96868.20;107917;1269;22541;-80
2022/08/29 06:57:20;;;;;;;14.20;11.60;;;;;;;16.64;100.00;96878.34;107863;1268;22570;-79
2022/08/29 06:59:54;;;;;;;15.40;13.40;;;;;;;16.61;100.00;96879.37;107829;1269;28575;-79
2022/08/29 07:02:25;;;;;;;14.80;12.10;;;;;;;16.59;100.00;96882.77;107704;1271;22565;-79
2022/08/29 07:04:57;;;;;;;15.70;12.20;;;;;;;16.57;100.00;96881.73;107811;1270;25322;-79
2022/08/29 07:07:29;;;;;;;14.50;11.20;;;;;;;16.54;100.00;96883.99;107905;1270;25247;-79
2022/08/29 07:10:01;;;;;;;15.70;13.10;;;;;;;16.50;100.00;96887.02;107842;1268;39204;-79
2022/08/29 07:12:32;;;;;;;17.40;12.20;;;;;;;16.46;100.00;96892.95;107930;1268;25244;-79
2022/08/29 07:15:05;;;;;;;17.60;15.10;;;;;;;16.43;100.00;96894.94;107926;1268;22537;-79
2022/08/29 07:17:41;;;;;;;16.70;12.30;;;;;;;16.41;100.00;96902.23;107963;1268;25333;-80
2022/08/29 07:20:13;;;;;;;17.10;13.70;;;;;;;16.38;100.00;96900.80;107627;1268;25096;-79
2022/08/29 07:22:49;;;;;;;17.00;14.30;;;;;;;16.38;100.00;96898.80;107787;1268;23367;-80
2022/08/29 07:25:26;;;;;;;15.90;13.00;;;;;;;16.38;100.00;96901.19;107811;1268;22586;-79
2022/08/29 07:28:06;;;;;;;15.40;12.30;;;;;;;16.39;100.00;96896.15;107769;1268;22539;-78
2022/08/29 07:30:40;;;;;;;16.30;13.40;;;;;;;16.39;100.00;96900.59;107729;1268;31419;-79
2022/08/29 07:33:11;;;;;;;17.40;13.30;;;;;;;16.39;100.00;96905.06;107818;1268;22630;-78
2022/08/29 07:35:42;;;;;;;13.70;12.20;;;;;;;16.40;100.00;96906.70;107795;1268;22532;-78
2022/08/29 07:38:13;;;;;;;15.40;13.80;;;;;;;16.42;100.00;96907.77;107774;1268;22759;-78
2022/08/29 07:40:45;;;;;;;17.10;12.90;;;;;;;16.45;100.00;96908.54;107779;1268;23100;-78
2022/08/29 07:43:17;;;;;;;15.40;13.50;;;;;;;16.47;100.00;96907.52;107820;1268;22561;-78
2022/08/29 07:45:48;;;;;;;17.40;14.00;;;;;;;16.52;100.00;96906.29;107775;1268;22531;-78
2022/08/29 07:48:26;;;;;;;14.60;13.10;;;;;;;16.57;100.00;96906.93;107688;1268;23770;-78
2022/08/29 07:50:57;;;;;;;17.10;14.80;;;;;;;16.58;100.00;96904.15;107720;1268;24328;-79
2022/08/29 07:53:37;;;;;;;16.70;14.50;;;;;;;16.60;100.00;96906.59;107760;1270;24234;-78
2022/08/29 07:56:12;;;;;;;17.30;13.70;;;;;;;16.54;100.00;96905.84;107776;1270;25500;-79
2022/08/29 07:58:44;;;;;;;18.00;16.10;;;;;;;16.48;100.00;96911.85;107734;1268;30006;-77
2022/08/29 08:01:17;;;;;;;18.30;16.10;;;;;;;16.47;100.00;96909.04;107731;1269;22516;-78
2022/08/29 08:03:49;;;;;;;21.30;16.40;;;;;;;16.49;100.00;96920.38;107730;1268;22532;-77
2022/08/29 08:06:21;;;;;;;20.50;17.20;;;;;;;16.47;100.00;96926.60;107720;1268;22556;-80
2022/08/29 08:08:53;;;;;;;23.10;18.80;;;;;;;16.45;100.00;96932.14;107656;1268;34807;-80
2022/08/29 08:11:25;;;;;;;21.00;18.80;;;;;;;16.44;100.00;96938.29;107589;1268;22660;-79
2022/08/29 08:13:58;;;;;;;21.30;18.70;;;;;;;16.41;100.00;96940.92;107724;1270;22535;-79
2022/08/29 08:16:30;;;;;;;22.20;19.90;;;;;;;16.42;100.00;96946.57;107747;1270;22635;-79
2022/08/29 08:19:02;;;;;;;22.60;20.30;;;;;;;16.46;100.00;96951.23;107710;1268;29425;-80
2022/08/29 08:21:36;;;;;;;22.40;20.00;;;;;;;16.51;100.00;96947.84;107792;1270;25349;-79
2022/08/29 08:24:09;;;;;;;24.30;20.80;;;;;;;16.51;100.00;96956.20;107815;1268;22541;-78
2022/08/29 08:26:40;;;;;;;20.70;18.10;;;;;;;16.54;100.00;96955.32;107885;1268;22541;-79
2022/08/29 08:29:12;;;;;;;22.80;19.30;;;;;;;16.53;100.00;96956.60;108110;1269;34009;-80
2022/08/29 08:31:47;;;;;;;20.30;18.30;;;;;;;16.58;100.00;96960.55;107800;1268;22527;-80
2022/08/29 08:34:19;;;;;;;21.00;18.20;;;;;;;16.64;100.00;96961.33;107890;1268;22691;-79
2022/08/29 08:36:51;;;;;;;19.50;17.60;;;;;;;16.66;100.00;96963.35;107776;1269;25367;-80
2022/08/29 08:39:22;;;;;;;17.20;15.40;;;;;;;16.72;100.00;96964.55;107716;1268;25306;-80
2022/08/29 08:42:02;;;;;;;22.40;16.10;;;;;;;16.73;100.00;96965.69;107707;1270;22546;-79
2022/08/29 08:45:03;;;;;;;18.30;16.10;;;;;;;16.81;100.00;96966.98;107671;1268;22670;-80
2022/08/29 08:47:42;;;;;;;16.80;15.00;;;;;;;16.93;100.00;96968.27;107782;1269;22537;-79
2022/08/29 08:50:24;;;;;;;18.70;16.80;;;;;;;16.99;100.00;96969.14;107839;1268;33600;-81
2022/08/29 08:53:00;;;;;;;16.90;15.00;;;;;;;17.06;100.00;96969.29;107814;1269;27605;-81
2022/08/29 08:55:40;;;;;;;16.60;14.90;;;;;;;17.25;100.00;96964.38;107810;1268;22535;-77
2022/08/29 08:58:22;;;;;;;18.60;16.70;;;;;;;17.43;100.00;96969.84;107778;1270;25578;-79
2022/08/29 09:00:59;;;;;;;15.60;14.00;;;;;;;17.65;100.00;96969.84;107828;1268;23150;-78
2022/08/29 09:03:56;;;;;;;16.40;14.80;;;;;;;17.78;100.00;96965.39;107802;1268;22568;-78
2022/08/29 09:06:43;;;;;;;15.50;13.90;;;;;;;17.92;100.00;96965.80;107791;1268;22547;-79
2022/08/29 09:09:24;;;;;;;15.20;12.90;;;;;;;18.12;100.00;96966.89;107759;1268;25587;-79
2022/08/29 09:12:06;;;;;;;14.30;12.80;;;;;;;18.37;100.00;96968.58;107766;1269;25371;-79
2022/08/29 09:14:59;;;;;;;13.80;11.80;;;;;;;18.55;100.00;96969.92;107782;1270;22598;-78
2022/08/29 09:17:40;;;;;;;15.20;12.70;;;;;;;18.78;100.00;96965.39;107774;1268;22524;-78
2022/08/29 09:20:21;;;;;;;14.20;12.70;;;;;;;19.14;99.48;96968.17;107737;1268;26867;-78
2022/08/29 09:23:00;;;;;;;13.10;11.90;;;;;;;19.11;96.03;96967.46;107855;1268;22531;-84
2022/08/29 09:25:35;;;;;;;14.40;11.50;;;;;;;18.87;94.93;96968.30;107813;1268;22679;-85
2022/08/29 09:28:09;;;;;;;13.80;12.40;;;;;;;18.64;93.57;96970.86;107832;1268;26460;-85
2022/08/29 09:30:44;;;;;;;13.70;12.40;;;;;;;18.76;95.22;96972.38;107575;1270;41319;-83
2022/08/29 09:33:17;;;;;;;12.50;11.20;;;;;;;19.32;95.47;96962.27;107739;1268;22544;-84
2022/08/29 09:35:54;;;;;;;14.80;11.40;;;;;;;19.72;93.76;96957.13;107805;1268;22533;-83
2022/08/29 09:38:26;;;;;;;29.40;26.40;;;;;;;19.83;90.92;96960.36;107696;1268;36088;-82
2022/08/29 09:41:01;;;;;;;14.10;12.60;;;;;;;19.84;90.09;96963.48;107758;1270;23226;-82
2022/08/29 09:43:48;;;;;;;13.10;11.80;;;;;;;19.69;87.33;96964.09;107793;1268;22546;-82
2022/08/29 09:46:24;;;;;;;14.90;13.40;;;;;;;19.43;87.07;96969.93;107829;1268;22555;-82
2022/08/29 09:49:13;;;;;;;17.90;15.50;;;;;;;19.34;87.94;96971.80;107710;1268;42602;-82
2022/08/29 09:51:47;;;;;;;16.10;12.60;;;;;;;19.41;87.73;96972.21;107844;1270;22573;-82
2022/08/29 09:54:27;;;;;;;12.00;9.90;;;;;;;19.54;87.26;96972.66;107840;1268;26560;-82
2022/08/29 09:57:01;;;;;;;;;;;;;;;19.71;85.56;96972.77;107836;1268;22503;-82
2022/08/29 09:59:36;;;;;;;13.80;11.80;;;;;;;19.88;86.08;96975.33;107830;1268;32640;-82
2022/08/29 10:02:26;;;;;;;12.20;10.90;;;;;;;20.21;85.77;96969.96;107974;1265;22606;-82
2022/08/29 10:05:01;;;;;;;12.10;10.90;;;;;;;20.47;84.45;96970.25;107974;1267;24404;-82
2022/08/29 10:07:35;;;;;;;11.00;9.30;;;;;;;20.67;82.33;96965.09;107977;1268;22566;-82
2022/08/29 10:10:14;;;;;;;9.50;8.60;;;;;;;20.78;80.80;96966.00;107904;1268;22533;-82
2022/08/29 10:12:54;;;;;;;9.60;8.60;;;;;;;20.79;78.22;96965.02;107944;1268;23175;-81
2022/08/29 10:15:30;;;;;;;9.60;7.60;;;;;;;20.64;76.98;96961.83;107972;1268;22531;-82
2022/08/29 10:18:22;;;;;;;10.40;8.30;;;;;;;20.40;76.03;96964.40;107946;1268;22528;-83
2022/08/29 10:21:08;;;;;;;9.70;8.40;;;;;;;20.36;77.24;96956.63;107949;1268;22538;-82
2022/08/29 10:23:56;;;;;;;10.30;9.10;;;;;;;20.63;78.00;96956.35;107953;1268;22541;-84
2022/08/29 10:26:39;;;;;;;12.20;9.80;;;;;;;21.09;78.87;96959.97;107981;1268;24212;-84
2022/08/29 10:29:25;;;;;;;11.30;9.20;;;;;;;21.44;78.48;96954.45;107824;1268;41711;-83
2022/08/29 10:32:07;;;;;;;9.70;8.70;;;;;;;21.76;78.64;96952.71;107797;1269;22528;-83
2022/08/29 10:34:55;;;;;;;12.30;8.80;;;;;;;22.00;78.32;96952.29;107896;1268;22567;-83
2022/08/29 10:37:39;;;;;;;12.00;9.70;;;;;;;21.90;75.76;96955.41;107960;1268;25214;-83
2022/08/29 10:40:20;;;;;;;9.90;8.70;;;;;;;21.39;75.14;96955.37;107791;1270;35707;-83
2022/08/29 10:43:03;;;;;;;11.10;8.70;;;;;;;20.98;75.16;96959.61;107918;1267;25362;-83
2022/08/29 10:45:50;;;;;;;10.20;8.80;;;;;;;20.77;76.51;96962.18;107944;1268;22522;-83
2022/08/29 10:48:28;;;;;;;9.60;8.70;;;;;;;20.79;77.66;96960.16;107866;1268;28748;-82
2022/08/29 10:51:16;;;;;;;11.20;10.10;;;;;;;20.91;78.21;96957.33;107957;1268;22547;-83
2022/08/29 10:53:58;;;;;;;11.20;9.80;;;;;;;20.94;77.13;96957.66;107910;1269;22614;-83
2022/08/29 10:56:40;;;;;;;10.30;9.20;;;;;;;20.79;77.05;96954.77;108390;1268;22614;-84
2022/08/29 10:59:22;;;;;;;11.50;10.40;;;;;;;20.63;77.12;96956.48;107900;1270;46033;-84
2022/08/29 11:02:00;;;;;;;12.90;11.60;;;;;;;20.72;78.03;96960.09;108296;1269;22531;-80
2022/08/29 11:04:36;;;;;;;10.70;9.60;;;;;;;20.97;78.18;96956.08;107875;1268;22541;-81
2022/08/29 11:07:12;;;;;;;9.10;8.20;;;;;;;21.16;77.07;96955.83;107598;1269;30477;-82
2022/08/29 11:09:48;;;;;;;9.80;8.80;;;;;;;21.18;76.68;96954.95;108243;1269;22553;-83
2022/08/29 11:12:23;;;;;;;10.10;8.80;;;;;;;21.25;76.57;96949.49;108276;1268;22617;-84
2022/08/29 11:14:59;;;;;;;9.80;8.70;;;;;;;21.32;75.82;96948.33;108289;1268;25235;-83
2022/08/29 11:17:39;;;;;;;11.30;9.30;;;;;;;21.32;76.07;96949.16;108214;1268;40797;-84
2022/08/29 11:20:18;;;;;;;9.50;8.40;;;;;;;21.26;76.06;96947.14;108229;1271;23271;-83
2022/08/29 11:22:56;;;;;;;10.30;9.20;;;;;;;21.26;76.59;96946.49;108238;1270;24224;-83
2022/08/29 11:25:29;;;;;;;9.60;8.00;;;;;;;21.38;76.97;96946.19;108264;1268;22531;-83
2022/08/29 11:28:09;;;;;;;12.50;8.60;;;;;;;21.43;74.77;96942.11;108226;1270;33729;-84
2022/08/29 11:30:45;;;;;;;9.70;8.20;;;;;;;21.33;74.97;96944.19;108275;1270;22653;-84
2022/08/29 11:33:35;;;;;;;9.90;8.80;;;;;;;21.45;75.40;96943.55;108216;1268;22536;-83
2022/08/29 11:36:27;;;;;;;10.40;8.70;;;;;;;21.44;74.88;96938.83;108168;1271;22547;-83
2022/08/29 11:39:37;;;;;;;9.80;8.80;;;;;;;21.22;73.56;96942.20;108139;1270;23431;-84
2022/08/29 11:42:12;;;;;;;9.10;8.20;;;;;;;21.00;74.21;96944.00;108116;1271;22620;-84
2022/08/29 11:44:49;;;;;;;8.70;7.80;;;;;;;21.12;75.03;96942.44;108198;1271;22617;-82
2022/08/29 11:47:56;;;;;;;8.30;7.30;;;;;;;21.30;74.40;96938.88;107794;1271;30712;-83
2022/08/29 11:50:33;;;;;;;11.00;8.10;;;;;;;21.29;73.12;96939.13;108243;1268;24228;-83
2022/08/29 11:53:14;;;;;;;9.40;8.30;;;;;;;21.42;72.79;96938.20;108253;1268;26490;-83
2022/08/29 11:56:07;;;;;;;9.80;7.80;;;;;;;21.28;72.08;96934.04;108239;1268;22553;-83
2022/08/29 11:58:48;;;;;;;9.40;7.20;;;;;;;21.17;71.53;96933.58;108227;1268;30944;-83